createdAt,value
2018-09-12T00:00:22.571Z,4.30
2018-09-12T00:02:50.940Z,4.33
2018-09-12T00:05:19.361Z,4.43
2018-09-12T00:07:47.741Z,5.17
2018-09-12T00:10:16.236Z,6.30
2018-09-12T00:12:44.659Z,4.93
2018-09-12T00:15:13.304Z,4.00
2018-09-12T00:17:41.786Z,4.37
2018-09-12T00:20:10.215Z,3.90
2018-09-12T00:22:38.655Z,4.97
2018-09-12T00:25:07.122Z,3.80
2018-09-12T00:27:35.665Z,4.67
2018-09-12T00:30:04.136Z,5.20
2018-09-12T00:32:32.554Z,4.87
2018-09-12T00:35:00.926Z,4.40
2018-09-12T00:37:29.376Z,3.60
2018-09-12T00:39:57.811Z,5.10
2018-09-12T00:42:26.230Z,4.37
2018-09-12T00:44:54.563Z,4.40
2018-09-12T00:47:22.991Z,4.50
2018-09-12T00:49:51.435Z,4.50
2018-09-12T00:52:19.791Z,4.60
2018-09-12T00:54:48.210Z,4.87
2018-09-12T00:57:16.570Z,4.17
2018-09-12T00:59:44.940Z,3.97
2018-09-12T01:02:13.357Z,4.33
2018-09-12T01:04:41.728Z,4.00
2018-09-12T01:07:10.137Z,3.70
2018-09-12T01:09:38.564Z,3.90
2018-09-12T01:12:06.889Z,5.30
2018-09-12T01:14:35.259Z,6.17
2018-09-12T01:17:03.665Z,4.37
2018-09-12T01:19:32.100Z,5.07
2018-09-12T01:22:00.411Z,4.10
2018-09-12T01:24:28.692Z,4.43
2018-09-12T01:26:56.960Z,4.10
2018-09-12T01:29:26.363Z,4.20
2018-09-12T01:31:54.877Z,5.87
2018-09-12T01:34:23.227Z,3.93
2018-09-12T01:36:51.483Z,4.37
2018-09-12T01:39:19.728Z,4.30
2018-09-12T01:41:47.981Z,4.40
2018-09-12T01:44:16.259Z,4.47
2018-09-12T01:46:44.480Z,3.50
2018-09-12T01:49:16.713Z,4.07
2018-09-12T01:51:45.402Z,4.10
2018-09-12T01:54:13.841Z,4.83
2018-09-12T01:56:42.089Z,3.90
2018-09-12T01:59:10.516Z,4.50
2018-09-12T02:01:38.759Z,4.63
2018-09-12T02:04:07.029Z,4.60
2018-09-12T02:06:35.268Z,4.07
2018-09-12T02:09:03.686Z,4.40
2018-09-12T02:11:31.945Z,4.07
2018-09-12T02:14:00.160Z,4.30
2018-09-12T02:16:28.447Z,4.93
2018-09-12T02:18:56.697Z,4.50
2018-09-12T02:21:24.943Z,4.40
2018-09-12T02:23:53.204Z,4.53
2018-09-12T02:26:21.490Z,4.60
2018-09-12T02:28:49.797Z,5.63
2018-09-12T02:31:18.071Z,5.17
2018-09-12T02:33:46.382Z,4.60
2018-09-12T02:36:19.957Z,4.33
2018-09-12T02:38:48.390Z,5.60
2018-09-12T02:41:16.687Z,4.70
2018-09-12T02:43:44.932Z,4.83
2018-09-12T02:46:13.167Z,4.27
2018-09-12T02:48:41.418Z,4.80
2018-09-12T02:51:09.655Z,5.87
2018-09-12T02:53:37.943Z,5.10
2018-09-12T02:56:06.224Z,4.97
2018-09-12T02:58:34.529Z,4.53
2018-09-12T03:01:02.767Z,4.40
2018-09-12T03:03:31.019Z,4.50
2018-09-12T03:05:59.268Z,4.80
2018-09-12T03:08:27.521Z,5.20
2018-09-12T03:10:55.784Z,4.10
2018-09-12T03:13:29.107Z,5.00
2018-09-12T03:16:00.313Z,4.10
2018-09-12T03:18:30.275Z,3.80
2018-09-12T03:21:00.168Z,4.17
2018-09-12T03:23:28.344Z,4.37
2018-09-12T03:25:56.579Z,4.27
2018-09-12T03:28:24.873Z,5.27
2018-09-12T03:30:53.184Z,4.93
2018-09-12T03:33:34.191Z,4.90
2018-09-12T03:36:02.453Z,5.77
2018-09-12T03:38:30.704Z,4.20
2018-09-12T03:40:58.955Z,4.60
2018-09-12T03:43:27.201Z,5.43
2018-09-12T03:45:55.463Z,5.93
2018-09-12T03:48:23.686Z,5.13
2018-09-12T03:50:51.927Z,4.10
2018-09-12T03:53:20.182Z,4.20
2018-09-12T03:55:48.456Z,4.70
2018-09-12T03:58:16.771Z,4.87
2018-09-12T04:00:45.035Z,4.60
2018-09-12T04:03:13.303Z,5.70
2018-09-12T04:05:41.740Z,5.00
2018-09-12T04:08:09.952Z,5.10
2018-09-12T04:10:38.235Z,4.40
2018-09-12T04:13:06.438Z,4.43
2018-09-12T04:15:34.683Z,5.03
2018-09-12T04:18:02.958Z,4.70
2018-09-12T04:20:31.255Z,4.87
2018-09-12T04:22:59.476Z,4.57
2018-09-12T04:25:27.716Z,4.57
2018-09-12T04:27:55.980Z,4.37
2018-09-12T04:30:24.232Z,4.90
2018-09-12T04:32:52.464Z,4.03
2018-09-12T04:35:20.717Z,4.13
2018-09-12T04:37:48.974Z,3.70
2018-09-12T04:40:17.178Z,4.40
2018-09-12T04:42:45.472Z,4.30
2018-09-12T04:45:13.811Z,4.47
2018-09-12T04:47:42.202Z,4.20
2018-09-12T04:50:10.428Z,5.30
2018-09-12T04:52:38.721Z,5.60
2018-09-12T04:55:07.715Z,4.90
2018-09-12T04:57:35.990Z,4.40
2018-09-12T05:00:04.279Z,4.33
2018-09-12T05:02:32.564Z,4.90
2018-09-12T05:05:00.812Z,5.93
2018-09-12T05:07:29.074Z,5.47
2018-09-12T05:09:57.304Z,5.20
2018-09-12T05:12:25.543Z,5.03
2018-09-12T05:14:53.882Z,5.20
2018-09-12T05:17:22.120Z,4.50
2018-09-12T05:19:50.436Z,5.83
2018-09-12T05:22:18.692Z,5.80
2018-09-12T05:24:46.963Z,4.43
2018-09-12T05:27:15.267Z,5.77
2018-09-12T05:29:43.575Z,5.53
2018-09-12T05:32:11.833Z,5.00
2018-09-12T05:34:40.146Z,5.53
2018-09-12T05:37:08.389Z,5.13
2018-09-12T05:39:36.737Z,4.93
2018-09-12T05:42:04.986Z,5.90
2018-09-12T05:44:33.314Z,4.90
2018-09-12T05:47:01.591Z,4.40
2018-09-12T05:49:29.910Z,5.23
2018-09-12T05:51:58.158Z,4.70
2018-09-12T05:54:26.439Z,4.63
2018-09-12T05:56:54.701Z,4.70
2018-09-12T05:59:23.026Z,4.43
2018-09-12T06:01:51.292Z,5.47
2018-09-12T06:04:19.606Z,5.50
2018-09-12T06:06:47.954Z,5.47
2018-09-12T06:09:16.148Z,5.33
2018-09-12T06:11:44.411Z,4.67
2018-09-12T06:14:12.720Z,5.13
2018-09-12T06:16:40.930Z,5.53
2018-09-12T06:19:09.183Z,4.90
2018-09-12T06:21:37.450Z,4.83
2018-09-12T06:24:06.253Z,5.73
2018-09-12T06:26:34.497Z,6.50
2018-09-12T06:29:02.849Z,6.20
2018-09-12T06:31:31.140Z,4.67
2018-09-12T06:33:59.426Z,5.30
2018-09-12T06:36:27.720Z,4.33
2018-09-12T06:38:55.978Z,4.73
2018-09-12T06:41:24.291Z,4.93
2018-09-12T06:43:52.577Z,4.60
2018-09-12T06:46:20.828Z,5.33
2018-09-12T06:48:49.113Z,4.33
2018-09-12T06:51:17.414Z,5.20
2018-09-12T06:53:45.760Z,4.40
2018-09-12T06:56:14.295Z,4.77
2018-09-12T06:58:42.558Z,4.50
2018-09-12T07:01:11.149Z,3.87
2018-09-12T07:03:39.570Z,4.50
2018-09-12T07:06:07.830Z,4.87
2018-09-12T07:08:36.155Z,4.53
2018-09-12T07:11:04.473Z,5.07
2018-09-12T07:13:32.790Z,4.90
2018-09-12T07:16:01.067Z,4.37
2018-09-12T07:18:29.322Z,4.90
2018-09-12T07:20:57.583Z,4.73
2018-09-12T07:23:26.045Z,5.23
2018-09-12T07:25:54.369Z,5.40
2018-09-12T07:28:22.832Z,5.03
2018-09-12T07:30:51.677Z,5.27
2018-09-12T07:33:20.335Z,5.47
2018-09-12T07:35:52.594Z,5.77
2018-09-12T07:38:21.101Z,6.27
2018-09-12T07:40:49.573Z,5.00
2018-09-12T07:43:17.978Z,6.10
2018-09-12T07:45:46.385Z,5.57
2018-09-12T07:48:14.802Z,5.23
2018-09-12T07:50:47.616Z,4.27
2018-09-12T07:53:16.579Z,4.97
2018-09-12T07:55:44.937Z,6.37
2018-09-12T07:58:13.475Z,5.23
2018-09-12T08:00:41.964Z,5.73
2018-09-12T08:03:10.348Z,5.30
2018-09-12T08:05:38.702Z,5.77
2018-09-12T08:08:07.204Z,5.07
2018-09-12T08:10:35.671Z,6.70
2018-09-12T08:13:04.008Z,6.17
2018-09-12T08:15:32.432Z,5.27
2018-09-12T08:18:00.896Z,5.27
2018-09-12T08:20:29.274Z,5.60
2018-09-12T08:22:57.675Z,5.60
2018-09-12T08:25:25.971Z,6.03
2018-09-12T08:27:54.312Z,4.57
2018-09-12T08:30:23.017Z,4.80
2018-09-12T08:32:51.323Z,4.80
2018-09-12T08:35:19.647Z,4.87
2018-09-12T08:37:48.021Z,4.70
2018-09-12T08:40:16.330Z,3.97
2018-09-12T08:42:45.408Z,4.70
2018-09-12T08:45:13.716Z,3.97
2018-09-12T08:47:42.037Z,4.30
2018-09-12T08:50:10.343Z,4.93
2018-09-12T08:52:38.999Z,4.33
2018-09-12T08:55:07.459Z,4.93
2018-09-12T08:57:35.808Z,5.37
2018-09-12T09:00:04.176Z,4.60
2018-09-12T09:02:32.791Z,5.10
2018-09-12T09:05:01.121Z,5.73
2018-09-12T09:07:29.430Z,6.20
2018-09-12T09:09:57.840Z,5.60
2018-09-12T09:12:26.154Z,6.23
2018-09-12T09:14:54.461Z,5.47
2018-09-12T09:17:22.795Z,5.53
2018-09-12T09:19:51.024Z,4.80
2018-09-12T09:22:19.290Z,6.07
2018-09-12T09:24:47.643Z,5.20
2018-09-12T09:27:16.126Z,5.60
2018-09-12T09:29:44.472Z,5.57
2018-09-12T09:32:13.063Z,6.70
2018-09-12T09:34:41.605Z,5.57
2018-09-12T09:37:09.836Z,5.33
2018-09-12T09:39:38.074Z,6.13
2018-09-12T09:42:06.471Z,6.10
2018-09-12T09:44:34.705Z,6.33
2018-09-12T09:47:02.973Z,6.53
2018-09-12T09:49:31.299Z,6.87
2018-09-12T09:51:59.579Z,6.17
2018-09-12T09:54:27.903Z,6.70
2018-09-12T09:56:56.187Z,6.20
2018-09-12T09:59:24.474Z,6.70
2018-09-12T10:01:58.110Z,6.97
2018-09-12T10:04:31.820Z,6.80
2018-09-12T10:07:04.317Z,5.87
2018-09-12T10:09:33.505Z,6.93
2018-09-12T10:12:02.896Z,6.43
2018-09-12T10:14:31.251Z,6.30
2018-09-12T10:16:59.518Z,6.50
2018-09-12T10:19:27.772Z,5.67
2018-09-12T10:21:56.059Z,6.40
2018-09-12T10:24:24.435Z,5.90
2018-09-12T10:26:52.663Z,5.80
2018-09-12T10:29:20.960Z,5.33
2018-09-12T10:31:49.316Z,4.60
2018-09-12T10:34:17.598Z,5.10
2018-09-12T10:36:46.017Z,4.40
2018-09-12T10:39:14.601Z,4.80
2018-09-12T10:41:43.948Z,4.17
2018-09-12T10:44:12.289Z,3.80
2018-09-12T10:46:40.927Z,6.13
2018-09-12T10:49:09.352Z,3.63
2018-09-12T10:51:37.667Z,4.00
2018-09-12T10:54:06.083Z,3.73
2018-09-12T10:56:34.407Z,3.87
2018-09-12T10:59:02.713Z,4.33
2018-09-12T11:01:30.999Z,4.13
2018-09-12T11:03:59.352Z,4.13
2018-09-12T11:06:27.705Z,3.57
2018-09-12T11:08:55.995Z,4.17
2018-09-12T11:11:24.267Z,3.97
2018-09-12T11:13:52.754Z,3.60
2018-09-12T11:16:21.200Z,4.00
2018-09-12T11:18:49.660Z,3.17
2018-09-12T11:21:18.263Z,3.77
2018-09-12T11:23:46.607Z,4.23
2018-09-12T11:26:14.948Z,3.43
2018-09-12T11:28:43.283Z,4.40
2018-09-12T11:31:11.611Z,4.63
2018-09-12T11:33:41.031Z,4.07
2018-09-12T11:36:10.008Z,4.10
2018-09-12T11:38:38.726Z,3.90
2018-09-12T11:41:07.106Z,3.57
2018-09-12T11:43:35.469Z,3.93
2018-09-12T11:46:03.730Z,4.70
2018-09-12T11:48:32.077Z,4.60
2018-09-12T11:51:00.372Z,3.77
2018-09-12T11:53:28.642Z,4.10
2018-09-12T11:55:56.896Z,4.10
2018-09-12T11:58:25.228Z,4.13
2018-09-12T12:00:53.648Z,4.60
2018-09-12T12:03:21.943Z,3.93
2018-09-12T12:05:50.327Z,3.17
2018-09-12T12:08:18.668Z,3.13
2018-09-12T12:10:46.944Z,4.47
2018-09-12T12:13:15.204Z,4.27
2018-09-12T12:15:43.481Z,4.07
2018-09-12T12:18:11.754Z,3.70
2018-09-12T12:20:40.070Z,3.83
2018-09-12T12:23:08.674Z,4.00
2018-09-12T12:25:36.914Z,4.70
2018-09-12T12:28:05.421Z,4.67
2018-09-12T12:30:33.711Z,4.20
2018-09-12T12:33:02.003Z,4.33
2018-09-12T12:35:31.645Z,4.70
2018-09-12T12:38:00.319Z,4.10
2018-09-12T12:40:28.768Z,3.90
2018-09-12T12:42:57.097Z,4.37
2018-09-12T12:45:25.407Z,4.17
2018-09-12T12:47:53.753Z,4.03
2018-09-12T12:50:22.022Z,4.53
2018-09-12T12:52:50.304Z,3.70
2018-09-12T12:55:18.663Z,4.43
2018-09-12T12:57:46.976Z,4.00
2018-09-12T13:00:15.239Z,4.37
2018-09-12T13:02:43.623Z,4.30
2018-09-12T13:05:11.924Z,3.63
2018-09-12T13:07:40.601Z,4.37
2018-09-12T13:10:08.948Z,3.70
2018-09-12T13:12:37.329Z,4.00
2018-09-12T13:15:19.169Z,3.30
2018-09-12T13:17:47.706Z,4.17
2018-09-12T13:20:16.007Z,4.10
2018-09-12T13:22:46.021Z,4.10
2018-09-12T13:25:14.728Z,4.20
2018-09-12T13:27:45.868Z,3.30
2018-09-12T13:30:15.654Z,3.50
2018-09-12T13:32:45.080Z,4.70
2018-09-12T13:35:13.795Z,4.37
2018-09-12T13:37:43.001Z,4.60
2018-09-12T13:40:12.020Z,4.57
2018-09-12T13:42:41.079Z,4.73
2018-09-12T13:45:09.704Z,4.63
2018-09-12T13:47:39.613Z,5.10
2018-09-12T13:50:09.248Z,4.60
2018-09-12T13:52:38.019Z,5.53
2018-09-12T13:55:07.067Z,5.57
2018-09-12T13:57:35.561Z,5.00
2018-09-12T14:00:05.537Z,4.60
2018-09-12T14:02:34.146Z,5.17
2018-09-12T14:05:02.500Z,4.83
2018-09-12T14:07:31.695Z,4.90
2018-09-12T14:10:00.169Z,4.80
2018-09-12T14:12:29.176Z,4.47
2018-09-12T14:14:57.737Z,5.10
2018-09-12T14:17:26.203Z,6.27
2018-09-12T14:19:54.874Z,6.10
2018-09-12T14:22:23.498Z,6.37
2018-09-12T14:24:51.971Z,7.53
2018-09-12T14:27:20.455Z,7.00
2018-09-12T14:29:48.820Z,6.07
2018-09-12T14:32:17.386Z,7.10
2018-09-12T14:34:45.863Z,7.63
2018-09-12T14:37:14.202Z,7.00
2018-09-12T14:39:42.515Z,7.90
2018-09-12T14:42:10.809Z,8.30
2018-09-12T14:44:39.124Z,9.10
2018-09-12T14:47:07.433Z,9.10
2018-09-12T14:49:35.731Z,9.37
2018-09-12T14:52:04.086Z,10.43
2018-09-12T14:54:33.317Z,9.50
2018-09-12T14:57:01.563Z,10.43
2018-09-12T14:59:29.948Z,10.57
2018-09-12T15:01:58.246Z,9.50
2018-09-12T15:04:26.575Z,10.07
2018-09-12T15:06:55.167Z,9.77
2018-09-12T15:09:23.422Z,10.57
2018-09-12T15:11:51.704Z,8.73
2018-09-12T15:14:19.995Z,9.90
2018-09-12T15:16:48.693Z,10.00
2018-09-12T15:19:17.024Z,10.23
2018-09-12T15:21:45.742Z,10.97
2018-09-12T15:24:14.107Z,10.50
2018-09-12T15:26:42.489Z,9.13
2018-09-12T15:29:10.751Z,9.90
2018-09-12T15:31:39.128Z,9.50
2018-09-12T15:34:07.374Z,10.07
2018-09-12T15:36:35.789Z,11.37
2018-09-12T15:39:06.133Z,10.87
2018-09-12T15:41:34.403Z,10.80
2018-09-12T15:44:02.712Z,11.63
2018-09-12T15:46:31.476Z,11.70
2018-09-12T15:49:00.400Z,12.17
2018-09-12T15:51:28.941Z,12.33
2018-09-12T15:53:57.942Z,11.57
2018-09-12T15:56:26.507Z,13.30
2018-09-12T15:58:55.408Z,12.90
2018-09-12T16:01:24.286Z,12.10
2018-09-12T16:03:52.675Z,12.43
2018-09-12T16:06:21.529Z,13.57
2018-09-12T16:08:50.174Z,13.80
2018-09-12T16:11:18.947Z,14.37
2018-09-12T16:13:47.926Z,14.37
2018-09-12T16:16:16.232Z,16.77
2018-09-12T16:18:44.589Z,16.23
2018-09-12T16:21:12.846Z,19.67
2018-09-12T16:23:41.143Z,20.83
2018-09-12T16:26:09.398Z,19.93
2018-09-12T16:28:37.785Z,20.90
2018-09-12T16:31:06.185Z,21.27
2018-09-12T16:33:34.462Z,20.47
2018-09-12T16:36:02.698Z,22.37
2018-09-12T16:38:30.982Z,21.03
2018-09-12T16:40:59.364Z,21.40
2018-09-12T16:43:27.672Z,22.60
2018-09-12T16:45:55.971Z,24.47
2018-09-12T16:48:24.283Z,26.50
2018-09-12T16:50:52.688Z,24.80
2018-09-12T16:53:21.040Z,28.67
2018-09-12T16:55:49.428Z,26.10
2018-09-12T16:58:17.760Z,24.83
2018-09-12T17:00:46.154Z,25.93
2018-09-12T17:03:14.424Z,25.73
2018-09-12T17:05:43.206Z,24.97
2018-09-12T17:08:11.539Z,25.17
2018-09-12T17:10:39.962Z,24.77
2018-09-12T17:13:08.242Z,23.00
2018-09-12T17:15:36.883Z,23.90
2018-09-12T17:18:05.255Z,21.33
2018-09-12T17:20:33.660Z,22.10
2018-09-12T17:23:02.105Z,22.30
2018-09-12T17:25:30.381Z,21.00
2018-09-12T17:27:59.150Z,20.27
2018-09-12T17:30:27.501Z,19.67
2018-09-12T17:32:55.817Z,18.57
2018-09-12T17:35:24.112Z,16.87
2018-09-12T17:37:52.380Z,15.30
2018-09-12T17:40:20.682Z,15.03
2018-09-12T17:42:49.023Z,12.50
2018-09-12T17:45:17.860Z,12.53
2018-09-12T17:47:46.240Z,12.63
2018-09-12T17:50:14.521Z,11.63
2018-09-12T17:52:42.802Z,10.17
2018-09-12T17:55:11.211Z,10.90
2018-09-12T17:57:39.567Z,10.50
2018-09-12T18:00:07.933Z,9.33
2018-09-12T18:02:36.208Z,10.63
2018-09-12T18:05:04.555Z,10.73
2018-09-12T18:07:32.807Z,10.60
2018-09-12T18:10:01.054Z,12.03
2018-09-12T18:12:29.349Z,10.33
2018-09-12T18:14:57.638Z,10.77
2018-09-12T18:17:25.992Z,9.40
2018-09-12T18:19:54.250Z,10.20
2018-09-12T18:22:22.727Z,9.33
2018-09-12T18:24:51.159Z,9.53
2018-09-12T18:27:21.501Z,8.30
2018-09-12T18:29:50.324Z,10.03
2018-09-12T18:32:18.560Z,10.17
2018-09-12T18:34:47.112Z,9.90
2018-09-12T18:37:16.169Z,9.50
2018-09-12T18:39:44.617Z,10.00
2018-09-12T18:42:13.356Z,9.90
2018-09-12T18:44:41.972Z,8.27
2018-09-12T18:47:10.512Z,9.30
2018-09-12T18:49:38.843Z,10.60
2018-09-12T18:52:07.290Z,8.50
2018-09-12T18:54:37.659Z,8.77
2018-09-12T18:57:06.500Z,10.00
2018-09-12T18:59:35.185Z,11.47
2018-09-12T19:02:03.499Z,10.50
2018-09-12T19:04:33.861Z,12.10
2018-09-12T19:07:02.475Z,13.87
2018-09-12T19:09:30.572Z,13.50
2018-09-12T19:11:59.093Z,16.87
2018-09-12T19:14:27.439Z,14.03
2018-09-12T19:16:55.902Z,12.27
2018-09-12T19:19:24.327Z,12.00
2018-09-12T19:21:52.586Z,11.27
2018-09-12T19:24:22.202Z,11.00
2018-09-12T19:26:51.553Z,10.70
2018-09-12T19:29:19.859Z,10.67
2018-09-12T19:31:48.176Z,10.70
2018-09-12T19:34:16.489Z,11.57
2018-09-12T19:36:45.161Z,11.77
2018-09-12T19:39:13.776Z,11.47
2018-09-12T19:41:42.558Z,12.07
2018-09-12T19:44:10.800Z,12.00
2018-09-12T19:46:40.079Z,13.00
2018-09-12T19:49:08.467Z,13.50
2018-09-12T19:51:36.763Z,12.80
2018-09-12T19:54:05.146Z,12.80
2018-09-12T19:56:33.469Z,11.60
2018-09-12T19:59:01.775Z,12.93
2018-09-12T20:01:30.035Z,13.70
2018-09-12T20:03:58.317Z,14.67
2018-09-12T20:06:26.590Z,13.83
2018-09-12T20:08:54.874Z,15.40
2018-09-12T20:11:23.135Z,15.43
2018-09-12T20:13:51.403Z,16.47
2018-09-12T20:16:19.739Z,15.33
2018-09-12T20:18:48.283Z,15.47
2018-09-12T20:21:16.586Z,16.57
2018-09-12T20:23:45.004Z,17.83
2018-09-12T20:26:13.165Z,18.00
2018-09-12T20:28:46.942Z,17.87
2018-09-12T20:31:15.195Z,20.80
2018-09-12T20:33:43.657Z,17.77
2018-09-12T20:36:11.973Z,16.70
2018-09-12T20:38:40.303Z,16.00
2018-09-12T20:41:08.591Z,16.70
2018-09-12T20:43:36.876Z,17.17
2018-09-12T20:46:05.280Z,16.00
2018-09-12T20:48:43.432Z,17.17
2018-09-12T20:51:13.685Z,16.40
2018-09-12T20:53:43.614Z,16.90
2018-09-12T20:56:14.203Z,15.93
2018-09-12T20:58:42.544Z,16.73
2018-09-12T21:01:12.615Z,18.50
2018-09-12T21:03:41.638Z,17.10
2018-09-12T21:06:10.332Z,16.60
2018-09-12T21:08:40.874Z,16.80
2018-09-12T21:11:12.221Z,16.87
2018-09-12T21:13:40.600Z,14.90
2018-09-12T21:16:13.068Z,17.30
2018-09-12T21:18:43.189Z,17.37
2018-09-12T21:21:11.563Z,16.30
2018-09-12T21:23:41.393Z,16.83
2018-09-12T21:26:11.976Z,18.03
2018-09-12T21:28:44.455Z,18.47
2018-09-12T21:31:19.781Z,17.50
2018-09-12T21:33:51.342Z,18.23
2018-09-12T21:36:20.830Z,17.10
2018-09-12T21:38:59.890Z,17.73
2018-09-12T21:41:30.236Z,16.80
2018-09-12T21:44:03.797Z,16.03
2018-09-12T21:46:32.253Z,15.70
2018-09-12T21:49:00.621Z,15.50
2018-09-12T21:51:28.886Z,15.90
2018-09-12T21:53:57.171Z,16.90
2018-09-12T21:56:25.448Z,17.23
2018-09-12T21:58:53.752Z,15.27
2018-09-12T22:01:24.988Z,16.57
2018-09-12T22:03:53.844Z,15.10
2018-09-12T22:06:22.740Z,13.43
2018-09-12T22:08:51.024Z,14.27
2018-09-12T22:11:19.307Z,13.63
2018-09-12T22:13:47.572Z,13.87
2018-09-12T22:16:15.851Z,15.30
2018-09-12T22:18:44.098Z,15.90
2018-09-12T22:21:12.352Z,14.20
2018-09-12T22:23:40.614Z,13.00
2018-09-12T22:26:08.991Z,12.40
2018-09-12T22:28:37.283Z,12.77
2018-09-12T22:31:05.649Z,13.17
2018-09-12T22:33:33.935Z,12.90
2018-09-12T22:36:02.167Z,12.40
2018-09-12T22:38:30.423Z,13.20
2018-09-12T22:40:58.690Z,12.80
2018-09-12T22:43:26.967Z,12.30
2018-09-12T22:45:55.243Z,11.87
2018-09-12T22:48:23.518Z,12.07
2018-09-12T22:50:51.846Z,13.50
2018-09-12T22:53:20.167Z,11.60
2018-09-12T22:55:48.479Z,11.13
2018-09-12T22:58:16.767Z,10.47
2018-09-12T23:00:45.044Z,9.90
2018-09-12T23:03:13.317Z,11.07
2018-09-12T23:05:41.579Z,9.77
2018-09-12T23:08:09.855Z,10.20
2018-09-12T23:10:38.147Z,9.13
2018-09-12T23:13:06.444Z,10.33
2018-09-12T23:15:34.733Z,9.80
2018-09-12T23:18:03.022Z,9.43
2018-09-12T23:23:05.767Z,10.67
2018-09-12T23:25:34.003Z,10.07
2018-09-12T23:28:02.295Z,10.07
2018-09-12T23:30:30.597Z,11.60
2018-09-12T23:32:58.844Z,11.20
2018-09-12T23:35:27.120Z,10.60
2018-09-12T23:37:55.455Z,10.63
2018-09-12T23:40:23.730Z,11.93
2018-09-12T23:42:51.983Z,10.40
2018-09-12T23:45:20.259Z,11.73
2018-09-12T23:47:48.511Z,11.50
2018-09-12T23:50:16.817Z,11.47
2018-09-12T23:52:45.099Z,12.20
2018-09-12T23:55:13.338Z,11.47
2018-09-12T23:57:41.603Z,10.77
